• Join FlightAware (Why Join?)
  • Login
  • US Flag 
07:16PM EST


 

Airport Tracker/Info


-or-


 

Live Flight TrackerFlight Track Log ✈ N607AH ✈ 22-Apr-2013 ✈ KBST - KBED

Flight Track Log - Related Links

Times and Time Zones

All times are in EDT time to prevent confusion due to time zone crossing. See the N607AH flight status page for this flight to view local times or setup timezone preferences in your user account.

Time Position Orientation Groundspeed Altitude Reporting Facility
EDT Latitude Longitude Course Direction KTS MPH feet Rate Location/Type
06:09PM 44.3208 -69.0911 225° Southwest 177 204 5,400  Level Boston Center
06:10PM 44.2889 -69.1394 227° Southwest 167 192 7,000 1,560 Climbing Boston Center
06:11PM 44.2569 -69.1875 227° Southwest 167 192 8,600 1,500 Climbing Boston Center
06:12PM 44.2228 -69.2331 224° Southwest 172 198 10,000 1,380 Climbing Boston Center
06:13PM 44.1889 -69.2811 225° Southwest 172 198 11,400 960 Climbing Boston Center
06:14PM 44.1693 -69.3167 180° South  Level FlightAware Approximate
06:14PM 44.1528 -69.3350 227° Southwest 172 198 12,000  Level Boston Center
06:15PM 44.1125 -69.3922 226° Southwest 201 231 11,900  Descending Boston Center
06:16PM 44.0664 -69.4581 226° Southwest 227 261 12,000  Climbing Boston Center
06:17PM 44.0242 -69.5208 227° Southwest 227 261 12,000  Level Boston Center
06:18PM 43.9781 -69.5867 226° Southwest 227 261 12,000  Level Boston Center
06:19PM 43.9336 -69.6492 225° Southwest 227 261 12,000  Level Boston Center
06:20PM 43.8872 -69.7178 227° Southwest 234 269 12,000  Level Boston Center
06:21PM 43.8408 -69.7803 224° Southwest 239 275 12,000  Level Boston Center
06:22PM 43.7925 -69.8486 226° Southwest 239 275 12,000  Level Boston Center
06:23PM 43.7458 -69.9139 225° Southwest 244 281 12,000  Level Boston Center
06:24PM 43.6994 -69.9817 227° Southwest 244 281 12,000  Level Boston Center
06:25PM 43.6528 -70.0469 225° Southwest 249 287 12,000  Level Boston Center
06:26PM 43.6064 -70.1147 227° Southwest 249 287 12,000  Level Boston Center
06:27PM 43.5575 -70.1794 224° Southwest 249 287 12,000  Level Boston Center
06:28PM 43.5172 -70.2383 227° Southwest 249 287 12,000  Level Boston Center
06:29PM 43.4642 -70.3117 225° Southwest 249 287 12,000  Level Boston Center
06:30PM 43.4217 -70.3706 225° Southwest 249 287 12,000  Level Boston Center
06:31PM 43.3708 -70.4436 226° Southwest 249 287 12,000 -240 Level Boston Center
06:32PM 43.3258 -70.5022 223° Southwest 249 287 11,600 -480 Descending Boston Center
06:33PM 43.2731 -70.5781 226° Southwest 249 287 11,100 -300 Descending Boston Center
06:34PM 43.2281 -70.6392 225° Southwest 249 287 11,000 -600 Descending Boston Center
06:35PM 43.1731 -70.7147 225° Southwest 249 287 10,000 -900 Descending Boston Center
06:36PM 43.1281 -70.7758 225° Southwest 249 287 9,200 -960 Descending Boston Center
06:37PM 43.1000 -70.8000 212° Southwest 255 293 8,700 -1,200 Descending KA90
06:38PM 43.0500 -70.8667 224° Southwest 254 292 7,600 -1,200 Descending KA90
06:38PM 43.0172 -70.8897 207° Southwest 249 287 6,800 -1,500 Descending Boston Center
06:39PM 42.9833 -70.9000 193° South 246 283 6,100 -1,560 Descending KA90
06:40PM 42.9333 -70.9500 216° Southwest 232 267 4,700 -1,140 Descending KA90
06:41PM 42.8833 -71.0000 216° Southwest 219 252 3,900 -720 Descending KA90
06:41PM 42.8586 -71.0408 230° Southwest 226 260 3,600 -600 Descending Boston Center
06:42PM 42.8197 -71.0956 226° Southwest 221 254 3,000 -300 Descending Boston Center
06:43PM 42.7683 -71.1475 217° Southwest 216 249 3,000  Level Boston Center
06:44PM 42.7206 -71.1853 210° Southwest 221 254 3,000  Level Boston Center
06:45PM 42.6628 -71.2317 211° Southwest 226 260 3,000 -300 Level Boston Center
06:46PM 42.6111 -71.2664 206° Southwest 226 260 2,400 -780 Descending Boston Center
06:47PM 42.5833 -71.2833 204° Southwest 224 258 2,000 -300 Descending KA90
06:48PM 42.5333 -71.3000 194° South 219 252 2,000 -300 Level KA90
06:49PM 42.4833 -71.3167 194° South 130 150 1,500 -540 Descending KA90
06:51PM 42.4667 -71.2833 209° Southwest  Level FlightAware Approximate
06:58PM 42.4699 -71.2890 209° Southwest  Level Estimated